Lennox, California
Current Conditions -  °F | °C
As of 3:53 PM on Sunday 21 Dec 2014 (Local Time) from KHHR Reporting Station
Clear Clear  
Wind Chill: 64°   Ceiling: Unl
Heat Index: 64°   Visibility: 8mi
Dew Point: 55°   Wind: 3mph
Humidity: 72%   Direction: 250°WSW
Pressure: 30.05"   Gusts: NA
Location:  33.94°N, 118.35°W
Report Text: KHHR 212353Z 25003KT 8SM CLR 18/13 A3005 RMK AO2 SLP176 T01780128 10200 20156 55007
Loading
Personal Weather Stations






























Interactive Weather Map New forecast layout! Learn more

10-Day Weather Forecast

Advertisements
Track Severe Weather on mobile